Terminal Aerodrome Forecast
Issued by NWS

Home | Current Version | Previous Version | Text Only | Print | Product List | Glossary On
Versions: 1 2 3 4 5 6 7 8 9 10 11 12 13 14 15 16 17 18 19
000
FTUS41 KGYX 122300
TAFHIE
TAF
KHIE 122334Z 1300/1324 VRB03KT P6SM SKC
     FM130600 VRB03KT 4SM BR SCT250
     FM131000 00000KT 1SM BR SCT002
     FM131300 19008KT P6SM BKN250
     FM131900 20008KT 5SM -SHRA BR OVC050=

USA.gov is the U.S. government's official web portal to all federal, state and local government web resources and services.